createdAt,value
2024-03-16T00:00:19.832Z,10.95
2024-03-16T00:00:51.982Z,10.93
2024-03-16T00:01:24.472Z,10.95
2024-03-16T00:01:56.686Z,10.98
2024-03-16T00:02:28.735Z,10.98
2024-03-16T00:03:01.218Z,10.98
2024-03-16T00:03:33.470Z,10.99
2024-03-16T00:04:05.563Z,11.00
2024-03-16T00:04:37.645Z,10.98
2024-03-16T00:05:09.617Z,10.98
2024-03-16T00:05:41.694Z,10.98
2024-03-16T00:06:13.631Z,11.03
2024-03-16T00:06:45.713Z,11.02
2024-03-16T00:07:17.740Z,11.01
2024-03-16T00:07:50.697Z,11.00
2024-03-16T00:08:22.685Z,11.01
2024-03-16T00:08:54.655Z,10.99
2024-03-16T00:09:26.654Z,11.00
2024-03-16T00:09:58.632Z,11.02
2024-03-16T00:10:30.849Z,11.05
2024-03-16T00:11:02.936Z,11.04
2024-03-16T00:11:35.124Z,11.07
2024-03-16T00:12:07.512Z,11.11
2024-03-16T00:12:39.428Z,11.11
2024-03-16T00:13:11.461Z,11.12
2024-03-16T00:13:43.595Z,11.12
2024-03-16T00:14:15.568Z,11.09
2024-03-16T00:14:49.546Z,11.07
2024-03-16T00:15:21.610Z,11.06
2024-03-16T00:15:53.683Z,11.09
2024-03-16T00:16:25.618Z,11.10
2024-03-16T00:16:57.515Z,11.14
2024-03-16T00:17:29.735Z,11.15
2024-03-16T00:18:01.793Z,11.18
2024-03-16T00:18:37.743Z,11.22
2024-03-16T00:19:09.985Z,11.23
2024-03-16T00:19:41.973Z,11.24
2024-03-16T00:20:15.153Z,11.23
2024-03-16T00:20:47.087Z,11.28
2024-03-16T00:21:19.006Z,11.29
2024-03-16T00:21:52.064Z,11.33
2024-03-16T00:22:24.144Z,11.31
2024-03-16T00:22:56.043Z,11.29
2024-03-16T00:23:29.988Z,11.30
2024-03-16T00:24:01.969Z,11.28
2024-03-16T00:24:33.948Z,11.29
2024-03-16T00:25:10.256Z,11.31
2024-03-16T00:25:42.220Z,11.35
2024-03-16T00:26:14.188Z,11.33
2024-03-16T00:26:46.311Z,11.33
2024-03-16T00:27:19.346Z,11.34
2024-03-16T00:27:54.086Z,11.35
2024-03-16T00:28:26.134Z,11.36
2024-03-16T00:28:58.028Z,11.39
2024-03-16T00:29:30.067Z,11.43
2024-03-16T00:30:02.267Z,11.41
2024-03-16T00:30:34.698Z,11.40
2024-03-16T00:31:07.626Z,11.40
2024-03-16T00:31:39.849Z,11.40
2024-03-16T00:32:11.793Z,11.41
2024-03-16T00:32:43.727Z,11.39
2024-03-16T00:33:16.068Z,11.41
2024-03-16T00:33:48.057Z,11.33
2024-03-16T00:34:20.483Z,11.34
2024-03-16T00:34:52.601Z,11.35
2024-03-16T00:35:25.930Z,11.33
2024-03-16T00:35:57.968Z,11.32
2024-03-16T00:36:31.716Z,11.33
2024-03-16T00:37:05.939Z,11.34
2024-03-16T00:37:38.268Z,11.33
2024-03-16T00:38:11.222Z,11.31
2024-03-16T00:38:43.456Z,11.31
2024-03-16T00:39:19.623Z,11.30
2024-03-16T00:39:51.887Z,11.31
2024-03-16T00:40:24.049Z,11.29
2024-03-16T00:40:56.418Z,11.30
2024-03-16T00:41:28.673Z,11.27
2024-03-16T00:42:00.671Z,11.29
2024-03-16T00:42:32.787Z,11.29
2024-03-16T00:43:05.729Z,11.28
2024-03-16T00:43:38.219Z,11.29
2024-03-16T00:44:10.376Z,11.31
2024-03-16T00:44:42.399Z,11.27
2024-03-16T00:45:14.512Z,11.30
2024-03-16T00:45:46.685Z,11.30
2024-03-16T00:46:18.668Z,11.29
2024-03-16T00:46:50.536Z,11.27
2024-03-16T00:47:22.713Z,11.26
2024-03-16T00:47:57.472Z,11.27
2024-03-16T00:48:29.921Z,11.25
2024-03-16T00:49:01.860Z,11.25
2024-03-16T00:49:33.943Z,11.20
2024-03-16T00:50:06.366Z,11.18
2024-03-16T00:50:38.303Z,11.16
2024-03-16T00:51:11.907Z,11.17
2024-03-16T00:51:44.136Z,11.15
2024-03-16T00:52:16.174Z,11.14
2024-03-16T00:52:48.365Z,11.14
2024-03-16T00:53:20.305Z,11.14
2024-03-16T00:53:52.289Z,11.13
2024-03-16T00:54:25.107Z,11.11
2024-03-16T00:54:57.970Z,11.11
2024-03-16T00:55:31.168Z,11.10
2024-03-16T00:56:04.516Z,11.09
2024-03-16T00:56:36.605Z,11.10
2024-03-16T00:57:08.518Z,11.10
2024-03-16T00:57:40.751Z,11.09
2024-03-16T00:58:12.869Z,11.09
2024-03-16T00:58:44.932Z,11.08
2024-03-16T00:59:17.220Z,11.08
2024-03-16T00:59:49.312Z,11.07
2024-03-16T01:00:21.733Z,11.07
2024-03-16T01:00:53.895Z,11.06
2024-03-16T01:01:29.334Z,11.03
2024-03-16T01:02:01.624Z,11.01
2024-03-16T01:02:33.588Z,10.97
2024-03-16T01:03:05.635Z,10.98
2024-03-16T01:03:37.790Z,10.99
2024-03-16T01:04:10.073Z,10.96
2024-03-16T01:04:42.038Z,10.94
2024-03-16T01:05:14.951Z,10.91
2024-03-16T01:05:52.412Z,10.89
2024-03-16T01:06:24.384Z,10.90
2024-03-16T01:06:56.477Z,10.87
2024-03-16T01:07:28.442Z,10.86
2024-03-16T01:08:00.508Z,10.83
2024-03-16T01:08:32.570Z,10.82
2024-03-16T01:09:05.086Z,10.81
2024-03-16T01:09:37.079Z,10.80
2024-03-16T01:10:12.672Z,10.81
2024-03-16T01:10:45.218Z,10.80
2024-03-16T01:11:17.433Z,10.80
2024-03-16T01:11:49.450Z,10.79
2024-03-16T01:12:21.398Z,10.77
2024-03-16T01:12:53.394Z,10.75
2024-03-16T01:13:25.448Z,10.74
2024-03-16T01:13:57.625Z,10.70
2024-03-16T01:14:30.171Z,10.72
2024-03-16T01:15:02.094Z,10.70
2024-03-16T01:15:34.208Z,10.70
2024-03-16T01:16:06.258Z,10.69
2024-03-16T01:16:38.468Z,10.68
2024-03-16T01:17:10.485Z,10.68
2024-03-16T01:17:43.523Z,10.66
2024-03-16T01:18:15.765Z,10.65
2024-03-16T01:18:47.820Z,10.65
2024-03-16T01:19:19.853Z,10.64
2024-03-16T01:19:52.086Z,10.60
2024-03-16T01:20:25.521Z,10.60
2024-03-16T01:20:57.516Z,10.56
2024-03-16T01:21:29.565Z,10.54
2024-03-16T01:22:02.693Z,10.55
2024-03-16T01:22:34.728Z,10.57
2024-03-16T01:23:07.803Z,10.56
2024-03-16T01:23:40.324Z,10.56
2024-03-16T01:24:12.342Z,10.55
2024-03-16T01:24:44.310Z,10.54
2024-03-16T01:25:16.471Z,10.52
2024-03-16T01:25:48.556Z,10.51
2024-03-16T01:26:20.485Z,10.45
2024-03-16T01:26:52.488Z,10.45
2024-03-16T01:27:24.412Z,10.42
2024-03-16T01:27:57.961Z,10.44
2024-03-16T01:28:29.922Z,10.44
2024-03-16T01:29:04.956Z,10.45
2024-03-16T01:29:36.911Z,10.45
2024-03-16T01:30:09.525Z,10.42
2024-03-16T01:30:41.630Z,10.42
2024-03-16T01:31:15.091Z,10.40
2024-03-16T01:31:47.329Z,10.38
2024-03-16T01:32:19.510Z,10.36
2024-03-16T01:32:51.829Z,10.31
2024-03-16T01:33:24.200Z,10.31
2024-03-16T01:33:56.589Z,10.28
2024-03-16T01:34:28.753Z,10.27
2024-03-16T01:35:00.775Z,10.24
2024-03-16T01:35:32.721Z,10.24
2024-03-16T01:36:05.008Z,10.28
2024-03-16T01:36:37.026Z,10.32
2024-03-16T01:37:09.143Z,10.35
2024-03-16T01:37:41.273Z,10.40
2024-03-16T01:38:13.642Z,10.38
2024-03-16T01:38:45.691Z,10.38
2024-03-16T01:39:17.705Z,10.37
2024-03-16T01:39:51.263Z,10.34
2024-03-16T01:40:26.718Z,10.33
2024-03-16T01:40:58.769Z,10.30
2024-03-16T01:41:30.742Z,10.31
2024-03-16T01:42:04.620Z,10.30
2024-03-16T01:42:37.580Z,10.29
2024-03-16T01:43:14.264Z,10.30
2024-03-16T01:43:49.651Z,10.30
2024-03-16T01:44:21.621Z,10.32
2024-03-16T01:45:11.573Z,10.33
2024-03-16T01:45:44.572Z,10.34
2024-03-16T01:46:17.334Z,10.33
2024-03-16T01:46:49.506Z,10.35
2024-03-16T01:47:21.473Z,10.36
2024-03-16T01:47:54.860Z,10.36
2024-03-16T01:48:27.013Z,10.36
2024-03-16T01:48:58.954Z,10.37
2024-03-16T01:49:30.932Z,10.37
2024-03-16T01:50:02.926Z,10.38
2024-03-16T01:50:34.890Z,10.37
2024-03-16T01:51:08.530Z,10.37
2024-03-16T01:51:41.116Z,10.35
2024-03-16T01:52:14.340Z,10.35
2024-03-16T01:52:48.029Z,10.34
2024-03-16T01:53:19.953Z,10.34
2024-03-16T01:53:51.928Z,10.34
2024-03-16T01:54:24.734Z,10.31
2024-03-16T01:54:56.962Z,10.30
2024-03-16T01:55:29.190Z,10.30
2024-03-16T01:56:01.164Z,10.29
2024-03-16T01:56:33.744Z,10.26
2024-03-16T01:57:05.804Z,10.27
2024-03-16T01:57:41.124Z,10.26
2024-03-16T01:58:13.126Z,10.25
2024-03-16T01:58:46.764Z,10.26
2024-03-16T01:59:19.344Z,10.25
2024-03-16T01:59:51.356Z,10.22
2024-03-16T02:00:23.299Z,10.22
2024-03-16T02:00:55.466Z,10.22
2024-03-16T02:01:27.603Z,10.20
2024-03-16T02:02:03.381Z,10.19
2024-03-16T02:02:38.198Z,10.20
2024-03-16T02:03:10.418Z,10.20
2024-03-16T02:03:43.571Z,10.21
2024-03-16T02:04:15.663Z,10.25
2024-03-16T02:04:47.773Z,10.23
2024-03-16T02:05:21.012Z,10.27
2024-03-16T02:05:52.953Z,10.28
2024-03-16T02:06:29.902Z,10.29
2024-03-16T02:07:10.141Z,10.29
2024-03-16T02:07:45.835Z,10.31
2024-03-16T02:08:17.773Z,10.33
2024-03-16T02:08:49.878Z,10.32
2024-03-16T02:09:22.450Z,10.34
2024-03-16T02:09:54.442Z,10.33
2024-03-16T02:10:26.366Z,10.34
2024-03-16T02:10:58.728Z,10.34
2024-03-16T02:11:30.724Z,10.32
2024-03-16T02:12:02.700Z,10.34
2024-03-16T02:12:35.693Z,10.34
2024-03-16T02:13:07.974Z,10.33
2024-03-16T02:13:40.186Z,10.33
2024-03-16T02:14:12.218Z,10.33
2024-03-16T02:14:44.312Z,10.30
2024-03-16T02:15:16.431Z,10.29
2024-03-16T02:15:48.688Z,10.31
2024-03-16T02:16:20.667Z,10.31
2024-03-16T02:16:56.240Z,10.30
2024-03-16T02:17:28.824Z,10.28
2024-03-16T02:18:01.012Z,10.26
2024-03-16T02:18:33.094Z,10.22
2024-03-16T02:19:05.274Z,10.25
2024-03-16T02:19:37.218Z,10.23
2024-03-16T02:20:16.837Z,10.21
2024-03-16T02:20:49.170Z,10.22
2024-03-16T02:21:21.228Z,10.19
2024-03-16T02:21:53.330Z,10.18
2024-03-16T02:22:25.373Z,10.20
2024-03-16T02:22:57.366Z,10.19
2024-03-16T02:23:32.731Z,10.15
2024-03-16T02:24:05.012Z,10.17
2024-03-16T02:24:37.646Z,10.14
2024-03-16T02:25:14.229Z,10.12
2024-03-16T02:25:46.336Z,10.10
2024-03-16T02:26:18.294Z,10.11
2024-03-16T02:26:51.068Z,10.12
2024-03-16T02:27:23.366Z,10.13
2024-03-16T02:27:55.410Z,10.13
2024-03-16T02:28:27.447Z,10.14
2024-03-16T02:28:59.482Z,10.16
2024-03-16T02:29:36.635Z,10.15
2024-03-16T02:30:12.139Z,10.15
2024-03-16T02:30:44.857Z,10.12
2024-03-16T02:31:17.055Z,10.11
2024-03-16T02:31:50.882Z,10.12
2024-03-16T02:32:23.959Z,10.09
2024-03-16T02:32:55.991Z,10.10
2024-03-16T02:33:29.093Z,10.08
2024-03-16T02:34:01.315Z,10.10
2024-03-16T02:34:34.706Z,10.09
2024-03-16T02:35:09.420Z,10.09
2024-03-16T02:35:41.455Z,10.11
2024-03-16T02:36:14.538Z,10.11
2024-03-16T02:36:46.573Z,10.10
2024-03-16T02:37:20.333Z,10.10
2024-03-16T02:37:52.234Z,10.13
2024-03-16T02:38:24.283Z,10.12
2024-03-16T02:38:56.229Z,10.14
2024-03-16T02:39:28.179Z,10.14
2024-03-16T02:40:00.218Z,10.17
2024-03-16T02:40:33.112Z,10.19
2024-03-16T02:41:08.650Z,10.23
2024-03-16T02:41:40.956Z,10.25
2024-03-16T02:42:12.865Z,10.26
2024-03-16T02:42:45.519Z,10.27
2024-03-16T02:43:17.746Z,10.27
2024-03-16T02:43:49.707Z,10.25
2024-03-16T02:44:21.603Z,10.24
2024-03-16T02:44:53.767Z,10.25
2024-03-16T02:45:25.803Z,10.25
2024-03-16T02:45:59.797Z,10.27
2024-03-16T02:46:32.037Z,10.30
2024-03-16T02:47:05.745Z,10.34
2024-03-16T02:47:37.849Z,10.35
2024-03-16T02:48:11.160Z,10.39
2024-03-16T02:48:43.896Z,10.40
2024-03-16T02:49:16.724Z,10.39
2024-03-16T02:49:50.690Z,10.35
2024-03-16T02:50:22.930Z,10.36
2024-03-16T02:50:54.912Z,10.35
2024-03-16T02:51:26.899Z,10.34
2024-03-16T02:51:59.087Z,10.35
2024-03-16T02:52:34.659Z,10.33
2024-03-16T02:53:06.763Z,10.30
2024-03-16T02:53:38.999Z,10.28
2024-03-16T02:54:11.008Z,10.26
2024-03-16T02:54:43.190Z,10.28
2024-03-16T02:55:15.200Z,10.27
2024-03-16T02:55:47.169Z,10.24
2024-03-16T02:56:20.283Z,10.23
2024-03-16T02:56:52.911Z,10.18
2024-03-16T02:57:25.598Z,10.13
2024-03-16T02:57:57.570Z,10.09
2024-03-16T02:58:30.310Z,10.03
2024-03-16T02:59:02.847Z,9.98
2024-03-16T02:59:34.835Z,9.96
2024-03-16T03:00:13.616Z,9.93
2024-03-16T03:00:45.622Z,10.06
2024-03-16T03:01:18.132Z,10.13
2024-03-16T03:01:50.259Z,10.12
2024-03-16T03:02:25.592Z,10.12
2024-03-16T03:02:58.617Z,10.15
2024-03-16T03:03:30.693Z,10.18
2024-03-16T03:04:03.191Z,10.17
2024-03-16T03:04:35.602Z,10.19
2024-03-16T03:05:12.451Z,10.16
2024-03-16T03:05:44.744Z,10.14
2024-03-16T03:06:16.771Z,10.14
2024-03-16T03:06:48.774Z,10.12
2024-03-16T03:07:20.957Z,10.13
2024-03-16T03:07:54.025Z,10.13
2024-03-16T03:08:26.348Z,10.12
2024-03-16T03:08:58.259Z,10.11
2024-03-16T03:09:30.704Z,10.11
2024-03-16T03:10:02.970Z,10.12
2024-03-16T03:10:35.085Z,10.13
2024-03-16T03:11:07.075Z,10.14
2024-03-16T03:11:39.669Z,10.15
2024-03-16T03:12:11.643Z,10.13
2024-03-16T03:12:43.805Z,10.14
2024-03-16T03:13:15.814Z,10.17
2024-03-16T03:13:51.829Z,10.20
2024-03-16T03:14:23.730Z,10.21
2024-03-16T03:14:55.660Z,10.25
2024-03-16T03:15:28.427Z,10.25
2024-03-16T03:16:00.486Z,10.23
2024-03-16T03:16:32.464Z,10.27
2024-03-16T03:17:04.453Z,10.29
2024-03-16T03:17:36.472Z,10.29
2024-03-16T03:18:08.541Z,10.33
2024-03-16T03:18:40.676Z,10.36
2024-03-16T03:19:12.747Z,10.37
2024-03-16T03:19:46.270Z,10.39
2024-03-16T03:20:22.129Z,10.40
2024-03-16T03:20:55.120Z,10.43
2024-03-16T03:21:27.233Z,10.45
2024-03-16T03:21:59.191Z,10.46
2024-03-16T03:22:31.122Z,10.49
2024-03-16T03:23:06.634Z,10.50
2024-03-16T03:23:38.681Z,10.55
2024-03-16T03:24:10.564Z,10.56
2024-03-16T03:24:42.481Z,10.57
2024-03-16T03:25:14.792Z,10.57
2024-03-16T03:25:49.301Z,10.57
2024-03-16T03:26:21.740Z,10.58
2024-03-16T03:26:53.673Z,10.60
2024-03-16T03:27:26.257Z,10.58
2024-03-16T03:27:58.546Z,10.56
2024-03-16T03:28:30.513Z,10.53
2024-03-16T03:29:02.549Z,10.49
2024-03-16T03:29:34.471Z,10.47
2024-03-16T03:30:07.447Z,10.47
2024-03-16T03:30:39.597Z,10.49
2024-03-16T03:31:12.334Z,10.50
2024-03-16T03:31:44.387Z,10.47
2024-03-16T03:32:16.279Z,10.45
2024-03-16T03:32:48.278Z,10.45
2024-03-16T03:33:20.254Z,10.43
2024-03-16T03:33:52.281Z,10.41
2024-03-16T03:34:25.267Z,10.37
2024-03-16T03:34:57.241Z,10.35
2024-03-16T03:35:29.900Z,10.30
2024-03-16T03:36:04.065Z,10.28
2024-03-16T03:36:36.206Z,10.26
2024-03-16T03:37:09.248Z,10.26
2024-03-16T03:37:41.195Z,10.25
2024-03-16T03:38:13.189Z,10.23
2024-03-16T03:38:45.290Z,10.23
2024-03-16T03:39:17.965Z,10.21
2024-03-16T03:39:53.796Z,10.21
2024-03-16T03:40:26.597Z,10.23
2024-03-16T03:40:59.025Z,10.20
2024-03-16T03:41:30.914Z,10.19
2024-03-16T03:42:02.810Z,10.18
2024-03-16T03:42:36.298Z,10.16
2024-03-16T03:43:18.294Z,10.16
2024-03-16T03:43:59.005Z,10.18
2024-03-16T03:44:51.282Z,10.10
2024-03-16T03:45:28.995Z,9.77
2024-03-16T03:46:01.041Z,9.60
2024-03-16T03:46:52.088Z,9.50
2024-03-16T03:47:31.719Z,9.61
2024-03-16T03:48:05.563Z,9.67
2024-03-16T03:48:37.826Z,9.66
2024-03-16T03:49:13.173Z,9.69
2024-03-16T03:49:52.177Z,9.68
2024-03-16T03:50:30.557Z,9.71
2024-03-16T03:51:04.171Z,9.71
2024-03-16T03:51:36.234Z,9.76
2024-03-16T03:52:08.296Z,9.77
2024-03-16T03:52:40.251Z,9.78
2024-03-16T03:53:12.385Z,9.78
2024-03-16T03:53:44.714Z,9.80
2024-03-16T03:54:16.632Z,9.81
2024-03-16T03:54:48.704Z,9.83
2024-03-16T03:55:20.780Z,9.82
2024-03-16T03:55:53.526Z,9.81
2024-03-16T03:56:25.456Z,9.83
2024-03-16T03:56:57.458Z,9.84
2024-03-16T03:57:29.576Z,9.81
2024-03-16T03:58:03.583Z,9.79
2024-03-16T03:58:35.750Z,9.80
2024-03-16T03:59:07.855Z,9.80
2024-03-16T03:59:39.865Z,9.81
2024-03-16T04:00:12.407Z,9.84
2024-03-16T04:00:45.948Z,9.84
2024-03-16T04:01:18.987Z,9.83
2024-03-16T04:01:51.085Z,9.82
2024-03-16T04:02:23.054Z,9.83
2024-03-16T04:02:55.152Z,9.81
2024-03-16T04:03:27.141Z,9.82
2024-03-16T04:04:00.186Z,9.83
2024-03-16T04:04:32.627Z,9.83
2024-03-16T04:05:04.888Z,9.83
2024-03-16T04:05:37.863Z,9.84
2024-03-16T04:06:09.840Z,9.82
2024-03-16T04:06:45.933Z,9.83
2024-03-16T04:07:18.169Z,9.81
2024-03-16T04:07:50.161Z,9.82
2024-03-16T04:08:22.164Z,9.81
2024-03-16T04:08:54.048Z,9.81
2024-03-16T04:09:26.034Z,9.77
2024-03-16T04:09:58.057Z,9.73
2024-03-16T04:10:29.982Z,9.73
2024-03-16T04:11:07.105Z,9.74
2024-03-16T04:11:40.991Z,9.71
2024-03-16T04:12:13.993Z,9.72
2024-03-16T04:12:46.966Z,9.69
2024-03-16T04:13:19.077Z,9.69
2024-03-16T04:13:51.024Z,9.70
2024-03-16T04:14:23.557Z,9.72
2024-03-16T04:14:55.498Z,9.73
2024-03-16T04:15:27.927Z,9.72
2024-03-16T04:15:59.939Z,9.72
2024-03-16T04:16:31.995Z,9.72
2024-03-16T04:17:04.145Z,9.73
2024-03-16T04:17:36.109Z,9.71
2024-03-16T04:18:08.328Z,9.71
2024-03-16T04:18:40.471Z,9.73
2024-03-16T04:19:12.605Z,9.73
2024-03-16T04:19:45.804Z,9.75
2024-03-16T04:20:21.446Z,9.73
2024-03-16T04:20:53.327Z,9.76
2024-03-16T04:21:25.472Z,9.77
2024-03-16T04:21:57.442Z,9.73
2024-03-16T04:22:29.452Z,9.74
2024-03-16T04:23:02.797Z,9.75
2024-03-16T04:23:35.183Z,9.75
2024-03-16T04:24:07.594Z,9.75
2024-03-16T04:24:39.545Z,9.75
2024-03-16T04:25:15.518Z,9.75
2024-03-16T04:25:50.235Z,9.72
2024-03-16T04:26:22.310Z,9.74
2024-03-16T04:26:54.260Z,9.75
2024-03-16T04:27:26.257Z,9.73
2024-03-16T04:27:58.289Z,9.72
2024-03-16T04:28:30.519Z,9.72
2024-03-16T04:29:02.477Z,9.72
2024-03-16T04:29:34.384Z,9.70
2024-03-16T04:30:10.580Z,9.69
2024-03-16T04:30:42.542Z,9.68
2024-03-16T04:31:14.584Z,9.65
2024-03-16T04:31:47.156Z,9.62
2024-03-16T04:32:19.347Z,9.56
2024-03-16T04:32:51.466Z,9.56
2024-03-16T04:33:23.571Z,9.53
2024-03-16T04:33:55.540Z,9.54
2024-03-16T04:34:28.048Z,9.54
2024-03-16T04:35:00.502Z,9.53
2024-03-16T04:35:32.391Z,9.53
2024-03-16T04:36:04.431Z,9.54
2024-03-16T04:36:36.740Z,9.54
2024-03-16T04:37:10.018Z,9.52
2024-03-16T04:37:41.961Z,9.52
2024-03-16T04:38:14.373Z,9.52
2024-03-16T04:38:46.320Z,9.53
2024-03-16T04:39:18.411Z,9.54
2024-03-16T04:39:50.341Z,9.52
2024-03-16T04:40:22.451Z,9.53
2024-03-16T04:40:55.492Z,9.53
2024-03-16T04:41:28.861Z,9.54
2024-03-16T04:42:01.894Z,9.56
2024-03-16T04:42:33.968Z,9.55
2024-03-16T04:43:06.140Z,9.52
2024-03-16T04:43:38.185Z,9.48
2024-03-16T04:44:10.116Z,9.45
2024-03-16T04:44:42.166Z,9.43
2024-03-16T04:45:14.146Z,9.40
2024-03-16T04:45:51.707Z,9.39
2024-03-16T04:46:24.654Z,9.39
2024-03-16T04:46:56.746Z,9.39
2024-03-16T04:47:28.935Z,9.40
2024-03-16T04:48:00.975Z,9.39
2024-03-16T04:48:32.954Z,9.38
2024-03-16T04:49:05.916Z,9.38
2024-03-16T04:49:37.924Z,9.40
2024-03-16T04:50:12.732Z,9.40
2024-03-16T04:50:45.546Z,9.40
2024-03-16T04:51:18.333Z,9.40
2024-03-16T04:51:50.287Z,9.41
2024-03-16T04:52:22.410Z,9.41
2024-03-16T04:52:54.335Z,9.42
2024-03-16T04:53:26.225Z,9.40
2024-03-16T04:53:58.398Z,9.38
2024-03-16T04:54:30.650Z,9.36
2024-03-16T04:55:04.572Z,9.32
2024-03-16T04:55:36.683Z,9.32
2024-03-16T04:56:08.631Z,9.33
2024-03-16T04:56:40.546Z,9.25
2024-03-16T04:57:13.854Z,9.25
2024-03-16T04:57:45.911Z,9.27
2024-03-16T04:58:18.081Z,9.29
2024-03-16T04:58:50.184Z,9.33
2024-03-16T04:59:22.064Z,9.32
2024-03-16T04:59:54.034Z,9.34
2024-03-16T05:00:26.116Z,9.32
2024-03-16T05:00:59.963Z,9.34
2024-03-16T05:01:32.118Z,9.35
2024-03-16T05:02:04.290Z,9.35
2024-03-16T05:02:36.298Z,9.32
2024-03-16T05:03:08.192Z,9.33
2024-03-16T05:03:40.264Z,9.34
2024-03-16T05:04:12.374Z,9.34
2024-03-16T05:04:44.426Z,9.36
2024-03-16T05:05:16.397Z,9.37
2024-03-16T05:05:51.717Z,9.37
2024-03-16T05:06:23.855Z,9.35
2024-03-16T05:06:55.889Z,9.31
2024-03-16T05:07:27.849Z,9.36
2024-03-16T05:07:59.933Z,9.35
2024-03-16T05:08:32.054Z,9.35
2024-03-16T05:09:06.794Z,9.34
2024-03-16T05:09:38.720Z,9.33
2024-03-16T05:10:12.827Z,9.35
2024-03-16T05:10:51.171Z,9.34
2024-03-16T05:11:23.260Z,9.37
2024-03-16T05:11:56.118Z,9.39
2024-03-16T05:12:28.227Z,9.40
2024-03-16T05:13:00.206Z,9.41
2024-03-16T05:13:34.687Z,9.42
2024-03-16T05:14:07.551Z,9.42
2024-03-16T05:14:39.471Z,9.42
2024-03-16T05:15:11.437Z,9.41
2024-03-16T05:15:43.410Z,9.44
2024-03-16T05:16:15.436Z,9.42
2024-03-16T05:16:47.407Z,9.45
2024-03-16T05:17:19.443Z,9.42
2024-03-16T05:17:51.509Z,9.41
2024-03-16T05:18:23.457Z,9.39
2024-03-16T05:18:55.402Z,9.39
2024-03-16T05:19:27.380Z,9.37
2024-03-16T05:19:59.580Z,9.37
2024-03-16T05:20:31.529Z,9.38
2024-03-16T05:21:03.787Z,9.38
2024-03-16T05:21:36.344Z,9.39
2024-03-16T05:22:09.142Z,9.41
2024-03-16T05:22:41.175Z,9.39
2024-03-16T05:23:13.549Z,9.44
2024-03-16T05:23:46.847Z,9.44
2024-03-16T05:24:18.862Z,9.47
2024-03-16T05:24:50.822Z,9.48
2024-03-16T05:25:23.857Z,9.52
2024-03-16T05:25:55.854Z,9.50
2024-03-16T05:26:30.198Z,9.51
2024-03-16T05:27:02.179Z,9.51
2024-03-16T05:27:36.632Z,9.51
2024-03-16T05:28:08.746Z,9.51
2024-03-16T05:28:41.015Z,9.52
2024-03-16T05:29:12.948Z,9.54
2024-03-16T05:29:44.909Z,9.54
2024-03-16T05:30:16.853Z,9.56
2024-03-16T05:30:53.810Z,9.55
2024-03-16T05:31:25.939Z,9.55
2024-03-16T05:32:00.412Z,9.56
2024-03-16T05:32:32.475Z,9.58
2024-03-16T05:33:08.262Z,9.58
2024-03-16T05:33:40.526Z,9.61
2024-03-16T05:34:12.557Z,9.62
2024-03-16T05:34:44.584Z,9.62
2024-03-16T05:35:17.384Z,9.61
2024-03-16T05:35:49.359Z,9.61
2024-03-16T05:36:21.386Z,9.62
2024-03-16T05:36:53.449Z,9.61
2024-03-16T05:37:27.214Z,9.61
2024-03-16T05:37:59.902Z,9.65
2024-03-16T05:38:31.821Z,9.66
2024-03-16T05:39:04.011Z,9.66
2024-03-16T05:39:36.512Z,9.66
2024-03-16T05:40:12.445Z,9.68
2024-03-16T05:40:47.260Z,9.70
2024-03-16T05:41:19.279Z,9.68
2024-03-16T05:41:51.619Z,9.69
2024-03-16T05:42:23.576Z,9.68
2024-03-16T05:42:56.116Z,9.71
2024-03-16T05:43:28.160Z,9.73
2024-03-16T05:44:00.233Z,9.72
2024-03-16T05:44:32.421Z,9.73
2024-03-16T05:45:04.797Z,9.74
2024-03-16T05:45:37.579Z,9.80
2024-03-16T05:46:09.664Z,9.80
2024-03-16T05:46:42.185Z,9.80
2024-03-16T05:47:14.206Z,9.80
2024-03-16T05:47:46.198Z,9.77
2024-03-16T05:48:19.253Z,9.80
2024-03-16T05:48:51.512Z,9.82
2024-03-16T05:49:26.050Z,9.80
2024-03-16T05:49:58.780Z,9.79
2024-03-16T05:50:30.660Z,9.82
2024-03-16T05:51:03.738Z,9.83
2024-03-16T05:51:36.030Z,9.85
2024-03-16T05:52:08.190Z,9.86
2024-03-16T05:52:40.227Z,9.87
2024-03-16T05:53:15.605Z,9.86
2024-03-16T05:53:48.208Z,9.84
2024-03-16T05:54:20.127Z,9.85
2024-03-16T05:54:52.571Z,9.86
2024-03-16T05:55:24.721Z,9.83
2024-03-16T05:55:56.708Z,9.84
2024-03-16T05:56:28.665Z,9.82
2024-03-16T05:57:00.734Z,9.85
2024-03-16T05:57:32.852Z,9.85
2024-03-16T05:58:04.910Z,9.85
2024-03-16T05:58:37.017Z,9.84
2024-03-16T05:59:10.210Z,9.83
2024-03-16T05:59:42.325Z,9.85
2024-03-16T06:00:16.984Z,9.87
2024-03-16T06:00:49.957Z,9.91
2024-03-16T06:01:22.873Z,9.92
2024-03-16T06:01:55.170Z,9.91
2024-03-16T06:02:27.104Z,9.89
2024-03-16T06:02:59.119Z,9.93
2024-03-16T06:03:31.935Z,9.96
2024-03-16T06:04:04.194Z,9.98
2024-03-16T06:04:36.650Z,9.98
2024-03-16T06:05:09.040Z,9.99
2024-03-16T06:05:42.509Z,10.00
2024-03-16T06:06:14.486Z,10.04
2024-03-16T06:06:47.800Z,10.06
2024-03-16T06:07:21.858Z,10.08
2024-03-16T06:07:53.837Z,10.10
2024-03-16T06:08:25.831Z,10.10
2024-03-16T06:08:57.720Z,10.11
2024-03-16T06:09:29.730Z,10.13
2024-03-16T06:10:01.824Z,10.14
2024-03-16T06:10:33.830Z,10.15
2024-03-16T06:11:06.115Z,10.17
2024-03-16T06:11:38.070Z,10.19
2024-03-16T06:12:10.820Z,10.22
2024-03-16T06:12:42.780Z,10.25
2024-03-16T06:13:14.798Z,10.22
2024-03-16T06:13:46.854Z,10.21
2024-03-16T06:14:18.837Z,10.21
2024-03-16T06:14:52.089Z,10.20
2024-03-16T06:15:24.275Z,10.21
2024-03-16T06:15:56.306Z,10.21
2024-03-16T06:16:28.360Z,10.20
2024-03-16T06:17:00.225Z,10.20
2024-03-16T06:17:32.405Z,10.19
2024-03-16T06:18:04.788Z,10.19
2024-03-16T06:18:38.962Z,10.19
2024-03-16T06:19:13.626Z,10.24
2024-03-16T06:19:45.565Z,10.26
2024-03-16T06:20:19.749Z,10.28
2024-03-16T06:20:52.744Z,10.28
2024-03-16T06:21:24.645Z,10.30
2024-03-16T06:21:56.910Z,10.34
2024-03-16T06:22:28.918Z,10.36
2024-03-16T06:23:00.827Z,10.38
2024-03-16T06:23:33.767Z,10.39
2024-03-16T06:24:06.272Z,10.43
2024-03-16T06:24:38.208Z,10.45
2024-03-16T06:25:14.474Z,10.44
2024-03-16T06:25:51.130Z,10.45
2024-03-16T06:26:23.569Z,10.48
2024-03-16T06:27:02.022Z,10.51
2024-03-16T06:27:35.030Z,10.52
2024-03-16T06:28:07.902Z,10.54
2024-03-16T06:28:40.956Z,10.54
2024-03-16T06:29:13.603Z,10.51
2024-03-16T06:29:53.118Z,10.52
2024-03-16T06:30:29.577Z,10.47
2024-03-16T06:31:09.147Z,10.49
2024-03-16T06:31:42.563Z,10.53
2024-03-16T06:32:21.451Z,10.53
2024-03-16T06:33:12.676Z,10.55
2024-03-16T06:33:49.623Z,10.56
2024-03-16T06:34:21.657Z,10.54
2024-03-16T06:34:54.753Z,10.54
2024-03-16T06:35:26.799Z,10.54
2024-03-16T06:35:58.807Z,10.57
2024-03-16T06:36:30.805Z,10.60
2024-03-16T06:37:02.953Z,10.60
2024-03-16T06:37:38.191Z,10.61
2024-03-16T06:38:10.455Z,10.64
2024-03-16T06:38:43.478Z,10.64
2024-03-16T06:39:15.542Z,10.68
2024-03-16T06:39:47.586Z,10.69
2024-03-16T06:40:19.640Z,10.66
2024-03-16T06:40:51.928Z,10.63
2024-03-16T06:41:24.037Z,10.61
2024-03-16T06:41:55.990Z,10.63
2024-03-16T06:42:29.475Z,10.67
2024-03-16T06:43:01.544Z,10.69
2024-03-16T06:43:33.794Z,10.72
2024-03-16T06:44:05.993Z,10.70
2024-03-16T06:44:38.257Z,10.70
2024-03-16T06:45:10.245Z,10.67
2024-03-16T06:45:43.051Z,10.61
2024-03-16T06:46:15.084Z,10.53
2024-03-16T06:46:47.216Z,10.54
2024-03-16T06:47:19.186Z,10.54
2024-03-16T06:47:51.242Z,10.53
2024-03-16T06:48:23.842Z,10.59
2024-03-16T06:48:55.848Z,10.63
2024-03-16T06:49:27.885Z,10.63
2024-03-16T06:49:59.807Z,10.62
2024-03-16T06:50:33.235Z,10.62
2024-03-16T06:51:05.409Z,10.61
2024-03-16T06:51:37.447Z,10.64
2024-03-16T06:52:09.848Z,10.67
2024-03-16T06:52:41.837Z,10.64
2024-03-16T06:53:13.818Z,10.64
2024-03-16T06:53:48.841Z,10.65
2024-03-16T06:54:20.793Z,10.68
2024-03-16T06:54:55.636Z,10.68
2024-03-16T06:55:27.720Z,10.69
2024-03-16T06:55:59.655Z,10.64
2024-03-16T06:56:31.607Z,10.64
2024-03-16T06:57:03.528Z,10.69
2024-03-16T06:57:35.461Z,10.73
2024-03-16T06:58:09.140Z,10.75
2024-03-16T06:58:42.117Z,10.79
2024-03-16T06:59:14.059Z,10.81
2024-03-16T06:59:46.072Z,10.83
2024-03-16T07:00:18.707Z,10.82
2024-03-16T07:00:50.749Z,10.84
2024-03-16T07:01:25.859Z,10.83
2024-03-16T07:01:57.960Z,10.87
2024-03-16T07:02:29.997Z,10.92
2024-03-16T07:03:02.040Z,10.96
2024-03-16T07:03:34.221Z,10.98
2024-03-16T07:04:07.219Z,11.01
2024-03-16T07:04:39.189Z,11.03
2024-03-16T07:05:11.462Z,11.03
2024-03-16T07:05:43.513Z,11.03
2024-03-16T07:06:15.423Z,11.06
2024-03-16T07:06:47.373Z,11.07
2024-03-16T07:07:19.438Z,11.07